sensor_id;sensor_type;location;lat;lon;timestamp;P1;durP1;ratioP1;P2;durP2;ratioP2
13122;SDS011;6627;50.920;12.050;2023-06-10T00:01:43;12.10;;;8.93;;
13122;SDS011;6627;50.920;12.050;2023-06-10T00:04:12;9.77;;;8.77;;
13122;SDS011;6627;50.920;12.050;2023-06-10T00:06:41;10.93;;;9.17;;
13122;SDS011;6627;50.920;12.050;2023-06-10T00:09:09;10.90;;;9.77;;
13122;SDS011;6627;50.920;12.050;2023-06-10T00:11:37;10.57;;;9.53;;
13122;SDS011;6627;50.920;12.050;2023-06-10T00:14:04;10.43;;;9.40;;
13122;SDS011;6627;50.920;12.050;2023-06-10T00:16:31;10.50;;;9.43;;
13122;SDS011;6627;50.920;12.050;2023-06-10T00:18:59;11.53;;;10.43;;
13122;SDS011;6627;50.920;12.050;2023-06-10T00:21:26;11.23;;;10.07;;
13122;SDS011;6627;50.920;12.050;2023-06-10T00:23:55;11.67;;;10.47;;
13122;SDS011;6627;50.920;12.050;2023-06-10T00:26:23;12.77;;;10.20;;
13122;SDS011;6627;50.920;12.050;2023-06-10T00:28:51;12.60;;;10.20;;
13122;SDS011;6627;50.920;12.050;2023-06-10T00:31:18;12.30;;;10.57;;
13122;SDS011;6627;50.920;12.050;2023-06-10T00:33:45;11.07;;;9.97;;
13122;SDS011;6627;50.920;12.050;2023-06-10T00:36:13;13.07;;;10.90;;
13122;SDS011;6627;50.920;12.050;2023-06-10T00:38:40;13.80;;;12.23;;
13122;SDS011;6627;50.920;12.050;2023-06-10T00:41:08;12.93;;;11.73;;
13122;SDS011;6627;50.920;12.050;2023-06-10T00:43:36;13.83;;;12.43;;
13122;SDS011;6627;50.920;12.050;2023-06-10T00:46:03;13.33;;;12.00;;
13122;SDS011;6627;50.920;12.050;2023-06-10T00:48:31;11.47;;;10.43;;
13122;SDS011;6627;50.920;12.050;2023-06-10T00:50:59;13.23;;;11.00;;
13122;SDS011;6627;50.920;12.050;2023-06-10T00:53:27;13.50;;;11.57;;
13122;SDS011;6627;50.920;12.050;2023-06-10T00:55:55;17.10;;;11.77;;
13122;SDS011;6627;50.920;12.050;2023-06-10T00:58:24;11.67;;;10.57;;
13122;SDS011;6627;50.920;12.050;2023-06-10T01:00:51;13.80;;;11.40;;
13122;SDS011;6627;50.920;12.050;2023-06-10T01:03:19;13.53;;;12.13;;
13122;SDS011;6627;50.920;12.050;2023-06-10T01:05:46;14.27;;;11.73;;
13122;SDS011;6627;50.920;12.050;2023-06-10T01:08:26;14.60;;;10.97;;
13122;SDS011;6627;50.920;12.050;2023-06-10T01:11:03;12.93;;;10.17;;
13122;SDS011;6627;50.920;12.050;2023-06-10T01:13:36;12.17;;;10.60;;
13122;SDS011;6627;50.920;12.050;2023-06-10T01:16:08;11.30;;;10.10;;
13122;SDS011;6627;50.920;12.050;2023-06-10T01:18:36;11.73;;;10.00;;
13122;SDS011;6627;50.920;12.050;2023-06-10T01:21:04;12.53;;;10.03;;
13122;SDS011;6627;50.920;12.050;2023-06-10T01:23:34;12.67;;;8.67;;
13122;SDS011;6627;50.920;12.050;2023-06-10T01:26:02;10.90;;;8.87;;
13122;SDS011;6627;50.920;12.050;2023-06-10T01:28:36;11.87;;;8.07;;
13122;SDS011;6627;50.920;12.050;2023-06-10T01:31:13;10.80;;;9.70;;
13122;SDS011;6627;50.920;12.050;2023-06-10T01:33:47;14.77;;;9.63;;
13122;SDS011;6627;50.920;12.050;2023-06-10T01:36:19;11.27;;;8.97;;
13122;SDS011;6627;50.920;12.050;2023-06-10T01:38:51;11.13;;;9.77;;
13122;SDS011;6627;50.920;12.050;2023-06-10T01:41:20;11.10;;;10.03;;
13122;SDS011;6627;50.920;12.050;2023-06-10T01:43:48;11.87;;;9.17;;
13122;SDS011;6627;50.920;12.050;2023-06-10T01:46:16;10.63;;;9.17;;
13122;SDS011;6627;50.920;12.050;2023-06-10T01:48:45;9.77;;;8.73;;
13122;SDS011;6627;50.920;12.050;2023-06-10T01:51:12;9.67;;;8.67;;
13122;SDS011;6627;50.920;12.050;2023-06-10T01:53:39;10.30;;;9.20;;
13122;SDS011;6627;50.920;12.050;2023-06-10T01:56:08;10.67;;;9.17;;
13122;SDS011;6627;50.920;12.050;2023-06-10T01:58:35;10.40;;;9.30;;
13122;SDS011;6627;50.920;12.050;2023-06-10T02:01:02;10.33;;;8.50;;
13122;SDS011;6627;50.920;12.050;2023-06-10T02:03:30;12.07;;;9.50;;
13122;SDS011;6627;50.920;12.050;2023-06-10T02:05:57;11.30;;;9.20;;
13122;SDS011;6627;50.920;12.050;2023-06-10T02:08:24;11.60;;;9.10;;
13122;SDS011;6627;50.920;12.050;2023-06-10T02:10:53;10.43;;;9.43;;
13122;SDS011;6627;50.920;12.050;2023-06-10T02:13:21;14.33;;;9.20;;
13122;SDS011;6627;50.920;12.050;2023-06-10T02:15:48;12.27;;;8.90;;
13122;SDS011;6627;50.920;12.050;2023-06-10T02:18:15;13.60;;;9.47;;
13122;SDS011;6627;50.920;12.050;2023-06-10T02:20:46;11.80;;;8.80;;
13122;SDS011;6627;50.920;12.050;2023-06-10T02:23:13;13.00;;;8.50;;
13122;SDS011;6627;50.920;12.050;2023-06-10T02:25:40;10.10;;;8.40;;
13122;SDS011;6627;50.920;12.050;2023-06-10T02:28:07;9.67;;;8.17;;
13122;SDS011;6627;50.920;12.050;2023-06-10T02:30:36;13.10;;;8.57;;
13122;SDS011;6627;50.920;12.050;2023-06-10T02:33:06;12.80;;;8.10;;
13122;SDS011;6627;50.920;12.050;2023-06-10T02:35:35;9.63;;;8.00;;
13122;SDS011;6627;50.920;12.050;2023-06-10T02:38:03;12.00;;;8.57;;
13122;SDS011;6627;50.920;12.050;2023-06-10T02:40:30;14.13;;;9.20;;
13122;SDS011;6627;50.920;12.050;2023-06-10T02:42:58;9.47;;;7.80;;
13122;SDS011;6627;50.920;12.050;2023-06-10T02:45:25;12.23;;;8.70;;
13122;SDS011;6627;50.920;12.050;2023-06-10T02:47:53;11.13;;;8.43;;
13122;SDS011;6627;50.920;12.050;2023-06-10T02:50:21;10.67;;;8.53;;
13122;SDS011;6627;50.920;12.050;2023-06-10T02:52:48;11.33;;;8.53;;
13122;SDS011;6627;50.920;12.050;2023-06-10T02:55:15;9.63;;;8.40;;
13122;SDS011;6627;50.920;12.050;2023-06-10T02:57:43;10.70;;;8.60;;
13122;SDS011;6627;50.920;12.050;2023-06-10T03:00:10;10.00;;;8.70;;
13122;SDS011;6627;50.920;12.050;2023-06-10T03:02:39;11.23;;;8.70;;
13122;SDS011;6627;50.920;12.050;2023-06-10T03:05:09;11.57;;;8.93;;
13122;SDS011;6627;50.920;12.050;2023-06-10T03:07:36;10.57;;;9.00;;
13122;SDS011;6627;50.920;12.050;2023-06-10T03:10:04;12.30;;;8.80;;
13122;SDS011;6627;50.920;12.050;2023-06-10T03:12:33;12.83;;;8.93;;
13122;SDS011;6627;50.920;12.050;2023-06-10T03:15:00;11.40;;;7.90;;
13122;SDS011;6627;50.920;12.050;2023-06-10T03:17:29;10.20;;;7.77;;
13122;SDS011;6627;50.920;12.050;2023-06-10T03:19:56;11.80;;;8.10;;
13122;SDS011;6627;50.920;12.050;2023-06-10T03:22:25;11.50;;;8.07;;
13122;SDS011;6627;50.920;12.050;2023-06-10T03:24:52;9.43;;;7.80;;
13122;SDS011;6627;50.920;12.050;2023-06-10T03:27:20;10.17;;;7.80;;
13122;SDS011;6627;50.920;12.050;2023-06-10T03:29:47;11.83;;;7.77;;
13122;SDS011;6627;50.920;12.050;2023-06-10T03:32:15;14.23;;;7.70;;
13122;SDS011;6627;50.920;12.050;2023-06-10T03:34:42;11.50;;;8.57;;
13122;SDS011;6627;50.920;12.050;2023-06-10T03:37:13;10.10;;;7.87;;
13122;SDS011;6627;50.920;12.050;2023-06-10T03:39:41;16.03;;;7.97;;
13122;SDS011;6627;50.920;12.050;2023-06-10T03:42:09;13.30;;;7.40;;
13122;SDS011;6627;50.920;12.050;2023-06-10T03:44:36;13.40;;;7.43;;
13122;SDS011;6627;50.920;12.050;2023-06-10T03:47:03;9.70;;;7.10;;
13122;SDS011;6627;50.920;12.050;2023-06-10T03:49:31;11.30;;;6.50;;
13122;SDS011;6627;50.920;12.050;2023-06-10T03:51:59;12.33;;;6.97;;
13122;SDS011;6627;50.920;12.050;2023-06-10T03:54:26;8.93;;;6.97;;
13122;SDS011;6627;50.920;12.050;2023-06-10T03:56:55;11.83;;;7.57;;
13122;SDS011;6627;50.920;12.050;2023-06-10T03:59:23;12.57;;;7.63;;
13122;SDS011;6627;50.920;12.050;2023-06-10T04:01:50;9.63;;;7.20;;
13122;SDS011;6627;50.920;12.050;2023-06-10T04:04:17;11.43;;;7.70;;
13122;SDS011;6627;50.920;12.050;2023-06-10T04:06:44;12.77;;;7.10;;
13122;SDS011;6627;50.920;12.050;2023-06-10T04:09:12;11.97;;;7.30;;
13122;SDS011;6627;50.920;12.050;2023-06-10T04:11:39;14.33;;;7.40;;
13122;SDS011;6627;50.920;12.050;2023-06-10T04:14:08;9.87;;;6.63;;
13122;SDS011;6627;50.920;12.050;2023-06-10T04:16:35;10.33;;;6.83;;
13122;SDS011;6627;50.920;12.050;2023-06-10T04:19:03;9.97;;;6.83;;
13122;SDS011;6627;50.920;12.050;2023-06-10T04:21:31;11.17;;;7.00;;
13122;SDS011;6627;50.920;12.050;2023-06-10T04:23:58;10.83;;;6.93;;
13122;SDS011;6627;50.920;12.050;2023-06-10T04:26:25;13.10;;;7.70;;
13122;SDS011;6627;50.920;12.050;2023-06-10T04:28:53;11.83;;;6.97;;
13122;SDS011;6627;50.920;12.050;2023-06-10T04:31:22;9.60;;;6.90;;
13122;SDS011;6627;50.920;12.050;2023-06-10T04:33:49;17.17;;;7.70;;
13122;SDS011;6627;50.920;12.050;2023-06-10T04:36:16;9.70;;;7.00;;
13122;SDS011;6627;50.920;12.050;2023-06-10T04:38:44;8.13;;;6.57;;
13122;SDS011;6627;50.920;12.050;2023-06-10T04:41:11;9.57;;;7.00;;
13122;SDS011;6627;50.920;12.050;2023-06-10T04:43:38;13.37;;;7.23;;
13122;SDS011;6627;50.920;12.050;2023-06-10T04:46:05;10.70;;;6.87;;
13122;SDS011;6627;50.920;12.050;2023-06-10T04:48:34;8.97;;;6.20;;
13122;SDS011;6627;50.920;12.050;2023-06-10T04:51:02;15.20;;;7.23;;
13122;SDS011;6627;50.920;12.050;2023-06-10T04:53:30;11.97;;;7.00;;
13122;SDS011;6627;50.920;12.050;2023-06-10T04:55:57;10.33;;;6.97;;
13122;SDS011;6627;50.920;12.050;2023-06-10T04:58:25;11.43;;;8.50;;
13122;SDS011;6627;50.920;12.050;2023-06-10T05:00:52;9.40;;;6.97;;
13122;SDS011;6627;50.920;12.050;2023-06-10T05:03:19;10.30;;;7.53;;
13122;SDS011;6627;50.920;12.050;2023-06-10T05:05:48;13.30;;;7.73;;
13122;SDS011;6627;50.920;12.050;2023-06-10T05:08:15;14.00;;;6.83;;
13122;SDS011;6627;50.920;12.050;2023-06-10T05:10:42;11.47;;;6.67;;
13122;SDS011;6627;50.920;12.050;2023-06-10T05:13:09;17.63;;;7.30;;
13122;SDS011;6627;50.920;12.050;2023-06-10T05:15:36;10.60;;;6.27;;
13122;SDS011;6627;50.920;12.050;2023-06-10T05:18:04;11.10;;;6.77;;
13122;SDS011;6627;50.920;12.050;2023-06-10T05:20:31;10.33;;;7.00;;
13122;SDS011;6627;50.920;12.050;2023-06-10T05:23:00;10.43;;;6.33;;
13122;SDS011;6627;50.920;12.050;2023-06-10T05:25:28;12.80;;;7.23;;
13122;SDS011;6627;50.920;12.050;2023-06-10T05:27:58;10.57;;;6.97;;
13122;SDS011;6627;50.920;12.050;2023-06-10T05:30:25;10.83;;;6.97;;
13122;SDS011;6627;50.920;12.050;2023-06-10T05:32:53;11.10;;;7.20;;
13122;SDS011;6627;50.920;12.050;2023-06-10T05:35:21;10.00;;;7.37;;
13122;SDS011;6627;50.920;12.050;2023-06-10T05:37:49;12.07;;;7.53;;
13122;SDS011;6627;50.920;12.050;2023-06-10T05:40:17;8.57;;;7.13;;
13122;SDS011;6627;50.920;12.050;2023-06-10T05:42:45;12.53;;;7.67;;
13122;SDS011;6627;50.920;12.050;2023-06-10T05:45:12;12.07;;;7.27;;
13122;SDS011;6627;50.920;12.050;2023-06-10T05:47:39;10.20;;;7.90;;
13122;SDS011;6627;50.920;12.050;2023-06-10T05:50:07;12.93;;;7.93;;
13122;SDS011;6627;50.920;12.050;2023-06-10T05:52:35;11.23;;;7.17;;
13122;SDS011;6627;50.920;12.050;2023-06-10T05:55:06;10.97;;;7.57;;
13122;SDS011;6627;50.920;12.050;2023-06-10T05:57:35;11.17;;;7.10;;
13122;SDS011;6627;50.920;12.050;2023-06-10T06:00:03;14.33;;;7.80;;
13122;SDS011;6627;50.920;12.050;2023-06-10T06:02:32;8.37;;;7.10;;
13122;SDS011;6627;50.920;12.050;2023-06-10T06:04:59;16.67;;;7.67;;
13122;SDS011;6627;50.920;12.050;2023-06-10T06:07:26;20.73;;;7.90;;
13122;SDS011;6627;50.920;12.050;2023-06-10T06:09:53;12.90;;;7.20;;
13122;SDS011;6627;50.920;12.050;2023-06-10T06:12:20;9.67;;;7.03;;
13122;SDS011;6627;50.920;12.050;2023-06-10T06:14:49;11.23;;;7.30;;
13122;SDS011;6627;50.920;12.050;2023-06-10T06:17:16;10.57;;;7.73;;
13122;SDS011;6627;50.920;12.050;2023-06-10T06:19:43;12.93;;;7.50;;
13122;SDS011;6627;50.920;12.050;2023-06-10T06:22:12;11.03;;;7.70;;
13122;SDS011;6627;50.920;12.050;2023-06-10T06:24:39;10.90;;;7.50;;
13122;SDS011;6627;50.920;12.050;2023-06-10T06:27:07;11.63;;;7.53;;
13122;SDS011;6627;50.920;12.050;2023-06-10T06:29:34;9.67;;;7.80;;
13122;SDS011;6627;50.920;12.050;2023-06-10T06:32:02;9.93;;;7.40;;
13122;SDS011;6627;50.920;12.050;2023-06-10T06:34:30;9.43;;;7.43;;
13122;SDS011;6627;50.920;12.050;2023-06-10T06:36:58;12.47;;;7.80;;
13122;SDS011;6627;50.920;12.050;2023-06-10T06:39:26;10.67;;;7.73;;
13122;SDS011;6627;50.920;12.050;2023-06-10T06:41:53;11.63;;;7.57;;
13122;SDS011;6627;50.920;12.050;2023-06-10T06:44:20;11.00;;;7.87;;
13122;SDS011;6627;50.920;12.050;2023-06-10T06:46:47;11.93;;;7.60;;
13122;SDS011;6627;50.920;12.050;2023-06-10T06:49:16;11.87;;;7.33;;
13122;SDS011;6627;50.920;12.050;2023-06-10T06:51:43;9.73;;;7.70;;
13122;SDS011;6627;50.920;12.050;2023-06-10T06:54:10;10.30;;;7.87;;
13122;SDS011;6627;50.920;12.050;2023-06-10T06:56:37;14.27;;;8.20;;
13122;SDS011;6627;50.920;12.050;2023-06-10T06:59:04;12.47;;;8.00;;
13122;SDS011;6627;50.920;12.050;2023-06-10T07:01:33;13.97;;;8.00;;
13122;SDS011;6627;50.920;12.050;2023-06-10T07:04:00;12.30;;;7.77;;
13122;SDS011;6627;50.920;12.050;2023-06-10T07:06:29;12.20;;;7.83;;
13122;SDS011;6627;50.920;12.050;2023-06-10T07:08:57;10.80;;;7.20;;
13122;SDS011;6627;50.920;12.050;2023-06-10T07:11:24;11.67;;;7.80;;
13122;SDS011;6627;50.920;12.050;2023-06-10T07:13:51;12.37;;;7.37;;
13122;SDS011;6627;50.920;12.050;2023-06-10T07:16:18;10.60;;;7.30;;
13122;SDS011;6627;50.920;12.050;2023-06-10T07:18:47;10.10;;;7.83;;
13122;SDS011;6627;50.920;12.050;2023-06-10T07:21:14;9.37;;;7.57;;
13122;SDS011;6627;50.920;12.050;2023-06-10T07:23:42;12.10;;;8.07;;
13122;SDS011;6627;50.920;12.050;2023-06-10T07:26:11;11.53;;;7.43;;
13122;SDS011;6627;50.920;12.050;2023-06-10T07:28:38;10.33;;;7.63;;
13122;SDS011;6627;50.920;12.050;2023-06-10T07:31:06;10.37;;;7.13;;
13122;SDS011;6627;50.920;12.050;2023-06-10T07:33:34;10.23;;;7.33;;
13122;SDS011;6627;50.920;12.050;2023-06-10T07:36:02;13.30;;;7.43;;
13122;SDS011;6627;50.920;12.050;2023-06-10T07:38:30;10.30;;;7.70;;
13122;SDS011;6627;50.920;12.050;2023-06-10T07:40:58;13.13;;;8.10;;
13122;SDS011;6627;50.920;12.050;2023-06-10T07:43:26;10.97;;;7.80;;
13122;SDS011;6627;50.920;12.050;2023-06-10T07:45:53;13.63;;;7.70;;
13122;SDS011;6627;50.920;12.050;2023-06-10T07:48:20;8.57;;;7.23;;
13122;SDS011;6627;50.920;12.050;2023-06-10T07:50:47;13.13;;;7.47;;
13122;SDS011;6627;50.920;12.050;2023-06-10T07:53:14;10.43;;;8.17;;
13122;SDS011;6627;50.920;12.050;2023-06-10T07:55:42;12.67;;;7.50;;
13122;SDS011;6627;50.920;12.050;2023-06-10T07:58:10;11.83;;;8.13;;
13122;SDS011;6627;50.920;12.050;2023-06-10T08:00:37;9.57;;;7.37;;
13122;SDS011;6627;50.920;12.050;2023-06-10T08:03:04;11.60;;;7.23;;
13122;SDS011;6627;50.920;12.050;2023-06-10T08:05:31;11.23;;;7.87;;
13122;SDS011;6627;50.920;12.050;2023-06-10T08:07:59;9.37;;;7.40;;
13122;SDS011;6627;50.920;12.050;2023-06-10T08:10:26;10.40;;;7.50;;
13122;SDS011;6627;50.920;12.050;2023-06-10T08:12:53;10.43;;;7.33;;
13122;SDS011;6627;50.920;12.050;2023-06-10T08:15:22;14.63;;;6.97;;
13122;SDS011;6627;50.920;12.050;2023-06-10T08:17:49;8.97;;;6.83;;
13122;SDS011;6627;50.920;12.050;2023-06-10T08:20:17;9.87;;;7.00;;
13122;SDS011;6627;50.920;12.050;2023-06-10T08:22:44;9.97;;;7.77;;
13122;SDS011;6627;50.920;12.050;2023-06-10T08:25:11;9.43;;;6.93;;
13122;SDS011;6627;50.920;12.050;2023-06-10T08:27:38;8.87;;;7.43;;
13122;SDS011;6627;50.920;12.050;2023-06-10T08:30:06;9.33;;;7.43;;
13122;SDS011;6627;50.920;12.050;2023-06-10T08:32:37;10.77;;;7.60;;
13122;SDS011;6627;50.920;12.050;2023-06-10T08:35:04;9.63;;;7.10;;
13122;SDS011;6627;50.920;12.050;2023-06-10T08:37:32;7.63;;;6.63;;
13122;SDS011;6627;50.920;12.050;2023-06-10T08:39:59;9.47;;;7.40;;
13122;SDS011;6627;50.920;12.050;2023-06-10T08:42:28;9.90;;;7.50;;
13122;SDS011;6627;50.920;12.050;2023-06-10T08:45:01;9.60;;;6.67;;
13122;SDS011;6627;50.920;12.050;2023-06-10T08:47:29;10.40;;;6.90;;
13122;SDS011;6627;50.920;12.050;2023-06-10T08:50:03;8.80;;;6.60;;
13122;SDS011;6627;50.920;12.050;2023-06-10T08:52:34;10.57;;;6.83;;
13122;SDS011;6627;50.920;12.050;2023-06-10T08:55:05;9.13;;;6.93;;
13122;SDS011;6627;50.920;12.050;2023-06-10T08:57:37;8.93;;;7.27;;
13122;SDS011;6627;50.920;12.050;2023-06-10T09:00:08;11.17;;;7.13;;
13122;SDS011;6627;50.920;12.050;2023-06-10T09:02:37;8.53;;;6.60;;
13122;SDS011;6627;50.920;12.050;2023-06-10T09:05:07;10.30;;;7.93;;
13122;SDS011;6627;50.920;12.050;2023-06-10T09:07:36;10.07;;;7.10;;
13122;SDS011;6627;50.920;12.050;2023-06-10T09:10:04;9.10;;;7.03;;
13122;SDS011;6627;50.920;12.050;2023-06-10T09:12:33;9.20;;;7.00;;
13122;SDS011;6627;50.920;12.050;2023-06-10T09:15:00;10.10;;;7.27;;
13122;SDS011;6627;50.920;12.050;2023-06-10T09:17:30;9.47;;;7.63;;
13122;SDS011;6627;50.920;12.050;2023-06-10T09:19:59;11.23;;;7.80;;
13122;SDS011;6627;50.920;12.050;2023-06-10T09:22:29;12.27;;;7.27;;
13122;SDS011;6627;50.920;12.050;2023-06-10T09:25:03;12.00;;;7.17;;
13122;SDS011;6627;50.920;12.050;2023-06-10T09:27:40;11.67;;;7.57;;
13122;SDS011;6627;50.920;12.050;2023-06-10T09:30:23;12.07;;;7.07;;
13122;SDS011;6627;50.920;12.050;2023-06-10T09:32:53;9.47;;;7.20;;
13122;SDS011;6627;50.920;12.050;2023-06-10T09:35:22;12.90;;;7.30;;
13122;SDS011;6627;50.920;12.050;2023-06-10T09:37:52;12.90;;;7.50;;
13122;SDS011;6627;50.920;12.050;2023-06-10T09:40:21;9.77;;;7.50;;
13122;SDS011;6627;50.920;12.050;2023-06-10T09:42:52;9.70;;;7.50;;
13122;SDS011;6627;50.920;12.050;2023-06-10T09:45:21;14.07;;;8.13;;
13122;SDS011;6627;50.920;12.050;2023-06-10T09:47:53;10.33;;;7.80;;
13122;SDS011;6627;50.920;12.050;2023-06-10T09:50:21;11.83;;;7.80;;
13122;SDS011;6627;50.920;12.050;2023-06-10T09:52:49;9.60;;;7.10;;
13122;SDS011;6627;50.920;12.050;2023-06-10T09:55:19;10.80;;;7.90;;
13122;SDS011;6627;50.920;12.050;2023-06-10T09:57:48;11.13;;;7.93;;
13122;SDS011;6627;50.920;12.050;2023-06-10T10:00:16;8.97;;;7.53;;
13122;SDS011;6627;50.920;12.050;2023-06-10T10:02:45;13.53;;;8.07;;
13122;SDS011;6627;50.920;12.050;2023-06-10T10:05:14;8.50;;;7.60;;
13122;SDS011;6627;50.920;12.050;2023-06-10T10:07:43;9.10;;;7.23;;
13122;SDS011;6627;50.920;12.050;2023-06-10T10:10:11;10.03;;;8.00;;
13122;SDS011;6627;50.920;12.050;2023-06-10T10:12:42;8.73;;;7.67;;
13122;SDS011;6627;50.920;12.050;2023-06-10T10:15:14;9.90;;;7.90;;
13122;SDS011;6627;50.920;12.050;2023-06-10T10:17:44;11.10;;;8.13;;
13122;SDS011;6627;50.920;12.050;2023-06-10T10:20:20;9.60;;;8.60;;
13122;SDS011;6627;50.920;12.050;2023-06-10T10:22:55;9.97;;;8.50;;
13122;SDS011;6627;50.920;12.050;2023-06-10T10:25:24;13.57;;;9.10;;
13122;SDS011;6627;50.920;12.050;2023-06-10T10:27:58;9.67;;;8.40;;
13122;SDS011;6627;50.920;12.050;2023-06-10T10:30:33;10.17;;;7.67;;
13122;SDS011;6627;50.920;12.050;2023-06-10T10:33:08;9.60;;;8.40;;
13122;SDS011;6627;50.920;12.050;2023-06-10T10:35:43;9.93;;;7.93;;
13122;SDS011;6627;50.920;12.050;2023-06-10T10:38:12;10.50;;;8.30;;
13122;SDS011;6627;50.920;12.050;2023-06-10T10:40:40;10.17;;;8.33;;
13122;SDS011;6627;50.920;12.050;2023-06-10T10:43:11;11.03;;;8.83;;
13122;SDS011;6627;50.920;12.050;2023-06-10T10:45:40;10.10;;;8.80;;
13122;SDS011;6627;50.920;12.050;2023-06-10T10:48:08;9.83;;;8.83;;
13122;SDS011;6627;50.920;12.050;2023-06-10T10:50:37;12.23;;;9.03;;
13122;SDS011;6627;50.920;12.050;2023-06-10T10:53:06;9.83;;;8.83;;
13122;SDS011;6627;50.920;12.050;2023-06-10T10:55:33;9.33;;;8.30;;
13122;SDS011;6627;50.920;12.050;2023-06-10T10:58:02;10.80;;;8.10;;
13122;SDS011;6627;50.920;12.050;2023-06-10T11:00:32;9.53;;;8.60;;
13122;SDS011;6627;50.920;12.050;2023-06-10T11:03:05;9.80;;;7.47;;
13122;SDS011;6627;50.920;12.050;2023-06-10T11:05:37;12.57;;;8.67;;
13122;SDS011;6627;50.920;12.050;2023-06-10T11:08:07;8.37;;;7.57;;
13122;SDS011;6627;50.920;12.050;2023-06-10T11:10:36;10.80;;;8.20;;
13122;SDS011;6627;50.920;12.050;2023-06-10T11:13:05;9.50;;;8.27;;
13122;SDS011;6627;50.920;12.050;2023-06-10T11:15:39;9.67;;;8.03;;
13122;SDS011;6627;50.920;12.050;2023-06-10T11:18:15;8.77;;;7.80;;
13122;SDS011;6627;50.920;12.050;2023-06-10T11:20:52;8.73;;;7.83;;
13122;SDS011;6627;50.920;12.050;2023-06-10T11:23:29;8.80;;;7.90;;
13122;SDS011;6627;50.920;12.050;2023-06-10T11:26:13;10.17;;;7.60;;
13122;SDS011;6627;50.920;12.050;2023-06-10T11:29:01;7.53;;;6.83;;
13122;SDS011;6627;50.920;12.050;2023-06-10T11:34:21;6.37;;;5.60;;
13122;SDS011;6627;50.920;12.050;2023-06-10T11:36:52;5.80;;;4.63;;
13122;SDS011;6627;50.920;12.050;2023-06-10T11:39:20;10.67;;;4.73;;
13122;SDS011;6627;50.920;12.050;2023-06-10T11:41:51;4.43;;;4.00;;
13122;SDS011;6627;50.920;12.050;2023-06-10T11:44:19;6.50;;;4.33;;
13122;SDS011;6627;50.920;12.050;2023-06-10T11:46:47;5.27;;;3.73;;
13122;SDS011;6627;50.920;12.050;2023-06-10T11:49:20;4.97;;;4.20;;
13122;SDS011;6627;50.920;12.050;2023-06-10T11:51:47;6.25;;;4.13;;
13122;SDS011;6627;50.920;12.050;2023-06-10T11:54:17;11.67;;;4.27;;
13122;SDS011;6627;50.920;12.050;2023-06-10T11:56:45;6.13;;;4.40;;
13122;SDS011;6627;50.920;12.050;2023-06-10T11:59:13;7.85;;;4.35;;
13122;SDS011;6627;50.920;12.050;2023-06-10T12:01:42;4.77;;;3.97;;
13122;SDS011;6627;50.920;12.050;2023-06-10T12:04:11;5.40;;;3.83;;
13122;SDS011;6627;50.920;12.050;2023-06-10T12:06:42;5.10;;;3.95;;
13122;SDS011;6627;50.920;12.050;2023-06-10T12:09:13;6.97;;;4.20;;
13122;SDS011;6627;50.920;12.050;2023-06-10T12:11:42;7.88;;;3.88;;
13122;SDS011;6627;50.920;12.050;2023-06-10T12:14:10;6.17;;;4.03;;
13122;SDS011;6627;50.920;12.050;2023-06-10T12:16:37;5.40;;;4.70;;
13122;SDS011;6627;50.920;12.050;2023-06-10T12:19:05;4.93;;;4.10;;
13122;SDS011;6627;50.920;12.050;2023-06-10T12:21:33;5.27;;;4.20;;
13122;SDS011;6627;50.920;12.050;2023-06-10T12:24:06;6.30;;;3.78;;
13122;SDS011;6627;50.920;12.050;2023-06-10T12:26:37;8.15;;;3.88;;
13122;SDS011;6627;50.920;12.050;2023-06-10T12:29:15;9.70;;;4.00;;
13122;SDS011;6627;50.920;12.050;2023-06-10T12:31:55;6.68;;;3.83;;
13122;SDS011;6627;50.920;12.050;2023-06-10T12:34:31;7.30;;;4.55;;
13122;SDS011;6627;50.920;12.050;2023-06-10T12:37:01;7.10;;;4.40;;
13122;SDS011;6627;50.920;12.050;2023-06-10T12:39:31;7.20;;;4.37;;
13122;SDS011;6627;50.920;12.050;2023-06-10T12:42:00;5.57;;;4.40;;
13122;SDS011;6627;50.920;12.050;2023-06-10T12:44:29;6.95;;;4.00;;
13122;SDS011;6627;50.920;12.050;2023-06-10T12:46:57;8.60;;;4.00;;
13122;SDS011;6627;50.920;12.050;2023-06-10T12:49:25;7.05;;;4.32;;
13122;SDS011;6627;50.920;12.050;2023-06-10T12:51:53;9.13;;;4.00;;
13122;SDS011;6627;50.920;12.050;2023-06-10T12:54:21;6.00;;;3.70;;
13122;SDS011;6627;50.920;12.050;2023-06-10T12:56:50;6.03;;;4.10;;
13122;SDS011;6627;50.920;12.050;2023-06-10T12:59:18;14.95;;;4.80;;
13122;SDS011;6627;50.920;12.050;2023-06-10T13:01:49;5.03;;;3.65;;
13122;SDS011;6627;50.920;12.050;2023-06-10T13:04:17;4.53;;;4.00;;
13122;SDS011;6627;50.920;12.050;2023-06-10T13:06:45;6.20;;;3.97;;
13122;SDS011;6627;50.920;12.050;2023-06-10T13:09:13;4.88;;;4.28;;
13122;SDS011;6627;50.920;12.050;2023-06-10T13:11:41;8.77;;;4.32;;
13122;SDS011;6627;50.920;12.050;2023-06-10T13:14:10;4.20;;;3.80;;
13122;SDS011;6627;50.920;12.050;2023-06-10T13:16:38;6.82;;;4.18;;
13122;SDS011;6627;50.920;12.050;2023-06-10T13:19:05;6.07;;;4.00;;
13122;SDS011;6627;50.920;12.050;2023-06-10T13:21:33;4.28;;;3.83;;
13122;SDS011;6627;50.920;12.050;2023-06-10T13:24:00;5.05;;;4.20;;
13122;SDS011;6627;50.920;12.050;2023-06-10T13:26:28;4.88;;;4.15;;
13122;SDS011;6627;50.920;12.050;2023-06-10T13:28:56;6.70;;;4.30;;
13122;SDS011;6627;50.920;12.050;2023-06-10T13:31:24;4.57;;;4.22;;
13122;SDS011;6627;50.920;12.050;2023-06-10T13:33:51;6.82;;;4.35;;
13122;SDS011;6627;50.920;12.050;2023-06-10T13:36:18;4.35;;;3.92;;
13122;SDS011;6627;50.920;12.050;2023-06-10T13:38:46;4.38;;;3.97;;
13122;SDS011;6627;50.920;12.050;2023-06-10T13:41:14;4.30;;;3.78;;
13122;SDS011;6627;50.920;12.050;2023-06-10T13:43:41;6.07;;;4.20;;
13122;SDS011;6627;50.920;12.050;2023-06-10T13:46:08;5.10;;;4.40;;
13122;SDS011;6627;50.920;12.050;2023-06-10T13:48:37;5.07;;;4.03;;
13122;SDS011;6627;50.920;12.050;2023-06-10T13:51:05;6.30;;;4.05;;
13122;SDS011;6627;50.920;12.050;2023-06-10T13:53:32;6.15;;;4.25;;
13122;SDS011;6627;50.920;12.050;2023-06-10T13:56:00;4.70;;;4.30;;
13122;SDS011;6627;50.920;12.050;2023-06-10T13:58:27;7.82;;;4.18;;
13122;SDS011;6627;50.920;12.050;2023-06-10T14:00:54;4.57;;;4.18;;
13122;SDS011;6627;50.920;12.050;2023-06-10T14:03:22;5.13;;;4.13;;
13122;SDS011;6627;50.920;12.050;2023-06-10T14:05:51;7.72;;;4.28;;
13122;SDS011;6627;50.920;12.050;2023-06-10T14:08:18;4.88;;;4.18;;
13122;SDS011;6627;50.920;12.050;2023-06-10T14:10:46;7.15;;;4.40;;
13122;SDS011;6627;50.920;12.050;2023-06-10T14:13:16;7.43;;;4.60;;
13122;SDS011;6627;50.920;12.050;2023-06-10T14:15:43;10.23;;;4.65;;
13122;SDS011;6627;50.920;12.050;2023-06-10T14:18:11;7.95;;;4.43;;
13122;SDS011;6627;50.920;12.050;2023-06-10T14:20:38;9.10;;;4.43;;
13122;SDS011;6627;50.920;12.050;2023-06-10T14:23:06;6.50;;;4.90;;
13122;SDS011;6627;50.920;12.050;2023-06-10T14:25:34;8.40;;;3.83;;
13122;SDS011;6627;50.920;12.050;2023-06-10T14:28:01;5.55;;;4.45;;
13122;SDS011;6627;50.920;12.050;2023-06-10T14:30:28;7.28;;;4.18;;
13122;SDS011;6627;50.920;12.050;2023-06-10T14:32:55;6.72;;;4.53;;
13122;SDS011;6627;50.920;12.050;2023-06-10T14:35:23;6.68;;;4.40;;
13122;SDS011;6627;50.920;12.050;2023-06-10T14:37:50;5.28;;;4.50;;
13122;SDS011;6627;50.920;12.050;2023-06-10T14:40:18;5.63;;;4.50;;
13122;SDS011;6627;50.920;12.050;2023-06-10T14:42:46;6.90;;;4.13;;
13122;SDS011;6627;50.920;12.050;2023-06-10T14:45:14;4.85;;;4.10;;
13122;SDS011;6627;50.920;12.050;2023-06-10T14:47:41;7.90;;;4.60;;
13122;SDS011;6627;50.920;12.050;2023-06-10T14:50:09;4.40;;;4.00;;